sensor_id;sensor_type;location;lat;lon;timestamp;temperature;humidity
10692;DHT22;5396;50.950;6.988;2023-07-29T00:01:00;19.60;99.90
10692;DHT22;5396;50.950;6.988;2023-07-29T00:03:26;19.70;99.90
10692;DHT22;5396;50.950;6.988;2023-07-29T00:05:52;19.60;99.90
10692;DHT22;5396;50.950;6.988;2023-07-29T00:08:18;19.70;99.90
10692;DHT22;5396;50.950;6.988;2023-07-29T00:10:43;19.70;99.90
10692;DHT22;5396;50.950;6.988;2023-07-29T00:13:09;19.70;99.90
10692;DHT22;5396;50.950;6.988;2023-07-29T00:15:34;19.70;99.90
10692;DHT22;5396;50.950;6.988;2023-07-29T00:18:00;19.70;99.90
10692;DHT22;5396;50.950;6.988;2023-07-29T00:20:26;19.70;99.90
10692;DHT22;5396;50.950;6.988;2023-07-29T00:22:51;19.60;99.90
10692;DHT22;5396;50.950;6.988;2023-07-29T00:25:21;19.60;99.90
10692;DHT22;5396;50.950;6.988;2023-07-29T00:27:47;19.60;99.90
10692;DHT22;5396;50.950;6.988;2023-07-29T00:30:12;19.50;99.90
10692;DHT22;5396;50.950;6.988;2023-07-29T00:32:38;19.50;99.90
10692;DHT22;5396;50.950;6.988;2023-07-29T00:35:04;19.40;99.90
10692;DHT22;5396;50.950;6.988;2023-07-29T00:37:30;19.40;99.90
10692;DHT22;5396;50.950;6.988;2023-07-29T00:39:56;19.30;99.90
10692;DHT22;5396;50.950;6.988;2023-07-29T00:42:23;19.30;99.90
10692;DHT22;5396;50.950;6.988;2023-07-29T00:44:49;19.20;99.90
10692;DHT22;5396;50.950;6.988;2023-07-29T00:47:15;19.10;99.90
10692;DHT22;5396;50.950;6.988;2023-07-29T00:49:44;19.10;99.90
10692;DHT22;5396;50.950;6.988;2023-07-29T00:52:11;19.10;99.90
10692;DHT22;5396;50.950;6.988;2023-07-29T00:54:39;19.00;99.90
10692;DHT22;5396;50.950;6.988;2023-07-29T00:57:08;19.00;99.90
10692;DHT22;5396;50.950;6.988;2023-07-29T00:59:35;18.90;99.90
10692;DHT22;5396;50.950;6.988;2023-07-29T01:02:02;18.90;99.90
10692;DHT22;5396;50.950;6.988;2023-07-29T01:04:28;18.90;99.90
10692;DHT22;5396;50.950;6.988;2023-07-29T01:12:38;18.80;99.90
10692;DHT22;5396;50.950;6.988;2023-07-29T01:17:54;18.90;99.90
10692;DHT22;5396;50.950;6.988;2023-07-29T01:20:20;18.90;99.90
10692;DHT22;5396;50.950;6.988;2023-07-29T01:22:47;18.80;99.90
10692;DHT22;5396;50.950;6.988;2023-07-29T01:25:13;18.80;99.90
10692;DHT22;5396;50.950;6.988;2023-07-29T01:27:43;18.80;99.90
10692;DHT22;5396;50.950;6.988;2023-07-29T01:30:09;18.80;99.90
10692;DHT22;5396;50.950;6.988;2023-07-29T01:37:33;18.70;99.90
10692;DHT22;5396;50.950;6.988;2023-07-29T01:40:00;18.80;99.90
10692;DHT22;5396;50.950;6.988;2023-07-29T01:42:26;18.80;99.90
10692;DHT22;5396;50.950;6.988;2023-07-29T01:44:52;18.80;99.90
10692;DHT22;5396;50.950;6.988;2023-07-29T01:47:18;18.80;99.90
10692;DHT22;5396;50.950;6.988;2023-07-29T01:49:44;18.80;99.90
10692;DHT22;5396;50.950;6.988;2023-07-29T01:52:09;18.80;99.90
10692;DHT22;5396;50.950;6.988;2023-07-29T01:54:35;18.90;99.90
10692;DHT22;5396;50.950;6.988;2023-07-29T01:57:00;18.90;99.90
10692;DHT22;5396;50.950;6.988;2023-07-29T01:59:26;18.80;99.90
10692;DHT22;5396;50.950;6.988;2023-07-29T02:01:51;18.80;99.90
10692;DHT22;5396;50.950;6.988;2023-07-29T02:04:17;18.80;99.90
10692;DHT22;5396;50.950;6.988;2023-07-29T02:06:43;18.80;99.90
10692;DHT22;5396;50.950;6.988;2023-07-29T02:09:09;18.80;99.90
10692;DHT22;5396;50.950;6.988;2023-07-29T02:11:35;18.70;99.90
10692;DHT22;5396;50.950;6.988;2023-07-29T02:14:00;18.80;99.90
10692;DHT22;5396;50.950;6.988;2023-07-29T02:16:26;18.70;99.90
10692;DHT22;5396;50.950;6.988;2023-07-29T02:18:52;18.70;99.90
10692;DHT22;5396;50.950;6.988;2023-07-29T02:21:17;18.70;99.90
10692;DHT22;5396;50.950;6.988;2023-07-29T02:23:43;18.70;99.90
10692;DHT22;5396;50.950;6.988;2023-07-29T02:26:08;18.60;99.90
10692;DHT22;5396;50.950;6.988;2023-07-29T02:28:34;18.60;99.90
10692;DHT22;5396;50.950;6.988;2023-07-29T02:31:21;18.50;99.90
10692;DHT22;5396;50.950;6.988;2023-07-29T02:33:47;18.50;99.90
10692;DHT22;5396;50.950;6.988;2023-07-29T02:36:13;18.40;99.90
10692;DHT22;5396;50.950;6.988;2023-07-29T02:38:39;18.30;99.90
10692;DHT22;5396;50.950;6.988;2023-07-29T02:41:05;18.20;99.90
10692;DHT22;5396;50.950;6.988;2023-07-29T02:43:31;18.20;99.90
10692;DHT22;5396;50.950;6.988;2023-07-29T02:45:56;18.20;99.90
10692;DHT22;5396;50.950;6.988;2023-07-29T02:48:22;18.10;99.90
10692;DHT22;5396;50.950;6.988;2023-07-29T02:50:47;18.20;99.90
10692;DHT22;5396;50.950;6.988;2023-07-29T02:53:13;18.10;99.90
10692;DHT22;5396;50.950;6.988;2023-07-29T02:55:42;18.20;99.90
10692;DHT22;5396;50.950;6.988;2023-07-29T02:58:07;18.20;99.90
10692;DHT22;5396;50.950;6.988;2023-07-29T03:00:33;18.20;99.90
10692;DHT22;5396;50.950;6.988;2023-07-29T03:02:59;18.20;99.90
10692;DHT22;5396;50.950;6.988;2023-07-29T03:05:27;18.20;99.90
10692;DHT22;5396;50.950;6.988;2023-07-29T03:07:53;18.30;99.90
10692;DHT22;5396;50.950;6.988;2023-07-29T03:10:18;18.20;99.90
10692;DHT22;5396;50.950;6.988;2023-07-29T03:12:44;18.20;99.90
10692;DHT22;5396;50.950;6.988;2023-07-29T03:15:10;18.30;99.90
10692;DHT22;5396;50.950;6.988;2023-07-29T03:17:35;18.30;99.90
10692;DHT22;5396;50.950;6.988;2023-07-29T03:20:01;18.30;99.90
10692;DHT22;5396;50.950;6.988;2023-07-29T03:22:26;18.30;99.90
10692;DHT22;5396;50.950;6.988;2023-07-29T03:24:52;18.30;99.90
10692;DHT22;5396;50.950;6.988;2023-07-29T03:27:18;18.30;99.90
10692;DHT22;5396;50.950;6.988;2023-07-29T03:29:43;18.30;99.90
10692;DHT22;5396;50.950;6.988;2023-07-29T03:32:09;18.30;99.90
10692;DHT22;5396;50.950;6.988;2023-07-29T03:34:35;18.20;99.90
10692;DHT22;5396;50.950;6.988;2023-07-29T03:37:00;18.30;99.90
10692;DHT22;5396;50.950;6.988;2023-07-29T03:39:26;18.20;99.90
10692;DHT22;5396;50.950;6.988;2023-07-29T03:41:52;18.30;99.90
10692;DHT22;5396;50.950;6.988;2023-07-29T03:44:18;18.30;99.90
10692;DHT22;5396;50.950;6.988;2023-07-29T03:46:44;18.30;99.90
10692;DHT22;5396;50.950;6.988;2023-07-29T03:49:10;18.30;99.90
10692;DHT22;5396;50.950;6.988;2023-07-29T03:51:35;18.30;99.90
10692;DHT22;5396;50.950;6.988;2023-07-29T03:54:01;18.30;99.90
10692;DHT22;5396;50.950;6.988;2023-07-29T03:56:27;18.30;99.90
10692;DHT22;5396;50.950;6.988;2023-07-29T03:58:52;18.30;99.90
10692;DHT22;5396;50.950;6.988;2023-07-29T04:01:18;18.30;99.90
10692;DHT22;5396;50.950;6.988;2023-07-29T04:03:45;18.30;99.90
10692;DHT22;5396;50.950;6.988;2023-07-29T04:06:11;18.30;99.90
10692;DHT22;5396;50.950;6.988;2023-07-29T04:08:37;18.30;99.90
10692;DHT22;5396;50.950;6.988;2023-07-29T04:11:03;18.20;99.90
10692;DHT22;5396;50.950;6.988;2023-07-29T04:13:28;18.30;99.90
10692;DHT22;5396;50.950;6.988;2023-07-29T04:15:54;18.30;99.90
10692;DHT22;5396;50.950;6.988;2023-07-29T04:18:20;18.30;99.90
10692;DHT22;5396;50.950;6.988;2023-07-29T04:20:45;18.30;99.90
10692;DHT22;5396;50.950;6.988;2023-07-29T04:23:11;18.20;99.90
10692;DHT22;5396;50.950;6.988;2023-07-29T04:25:37;18.30;99.90
10692;DHT22;5396;50.950;6.988;2023-07-29T04:28:02;18.30;99.90
10692;DHT22;5396;50.950;6.988;2023-07-29T04:30:31;18.30;99.90
10692;DHT22;5396;50.950;6.988;2023-07-29T04:32:57;18.30;99.90
10692;DHT22;5396;50.950;6.988;2023-07-29T04:35:22;18.30;99.90
10692;DHT22;5396;50.950;6.988;2023-07-29T04:37:48;18.30;99.90
10692;DHT22;5396;50.950;6.988;2023-07-29T04:40:14;18.30;99.90
10692;DHT22;5396;50.950;6.988;2023-07-29T04:42:40;18.30;99.90
10692;DHT22;5396;50.950;6.988;2023-07-29T04:45:05;18.30;99.90
10692;DHT22;5396;50.950;6.988;2023-07-29T04:47:31;18.30;99.90
10692;DHT22;5396;50.950;6.988;2023-07-29T04:49:57;18.30;99.90
10692;DHT22;5396;50.950;6.988;2023-07-29T04:52:22;18.30;99.90
10692;DHT22;5396;50.950;6.988;2023-07-29T04:54:48;18.40;99.90
10692;DHT22;5396;50.950;6.988;2023-07-29T04:57:13;18.40;99.90
10692;DHT22;5396;50.950;6.988;2023-07-29T04:59:39;18.40;99.90
10692;DHT22;5396;50.950;6.988;2023-07-29T05:02:05;18.50;99.90
10692;DHT22;5396;50.950;6.988;2023-07-29T05:04:30;18.50;99.90
10692;DHT22;5396;50.950;6.988;2023-07-29T05:06:56;18.50;99.90
10692;DHT22;5396;50.950;6.988;2023-07-29T05:09:21;18.50;99.90
10692;DHT22;5396;50.950;6.988;2023-07-29T05:11:47;18.50;99.90
10692;DHT22;5396;50.950;6.988;2023-07-29T05:14:14;18.60;99.90
10692;DHT22;5396;50.950;6.988;2023-07-29T05:16:40;18.50;99.90
10692;DHT22;5396;50.950;6.988;2023-07-29T05:19:06;18.60;99.90
10692;DHT22;5396;50.950;6.988;2023-07-29T05:21:31;18.60;99.90
10692;DHT22;5396;50.950;6.988;2023-07-29T05:23:57;18.70;99.90
10692;DHT22;5396;50.950;6.988;2023-07-29T05:26:23;18.70;99.90
10692;DHT22;5396;50.950;6.988;2023-07-29T05:28:49;18.70;99.90
10692;DHT22;5396;50.950;6.988;2023-07-29T05:31:14;18.70;99.90
10692;DHT22;5396;50.950;6.988;2023-07-29T05:33:40;18.70;99.90
10692;DHT22;5396;50.950;6.988;2023-07-29T05:36:05;18.70;99.90
10692;DHT22;5396;50.950;6.988;2023-07-29T05:38:31;18.70;99.90
10692;DHT22;5396;50.950;6.988;2023-07-29T05:40:57;18.70;99.90
10692;DHT22;5396;50.950;6.988;2023-07-29T05:43:24;18.70;99.90
10692;DHT22;5396;50.950;6.988;2023-07-29T05:45:49;18.70;99.90
10692;DHT22;5396;50.950;6.988;2023-07-29T05:48:16;18.70;99.90
10692;DHT22;5396;50.950;6.988;2023-07-29T05:50:42;18.70;99.90
10692;DHT22;5396;50.950;6.988;2023-07-29T05:53:07;18.70;99.90
10692;DHT22;5396;50.950;6.988;2023-07-29T05:55:33;18.70;99.90
10692;DHT22;5396;50.950;6.988;2023-07-29T05:57:58;18.70;99.90
10692;DHT22;5396;50.950;6.988;2023-07-29T06:00:24;18.80;99.90
10692;DHT22;5396;50.950;6.988;2023-07-29T06:02:49;18.90;99.90
10692;DHT22;5396;50.950;6.988;2023-07-29T06:05:15;18.90;99.90
10692;DHT22;5396;50.950;6.988;2023-07-29T06:07:40;18.90;99.90
10692;DHT22;5396;50.950;6.988;2023-07-29T06:10:13;18.90;99.90
10692;DHT22;5396;50.950;6.988;2023-07-29T06:12:39;18.90;99.90
10692;DHT22;5396;50.950;6.988;2023-07-29T06:15:05;18.90;99.90
10692;DHT22;5396;50.950;6.988;2023-07-29T06:17:31;18.90;99.90
10692;DHT22;5396;50.950;6.988;2023-07-29T06:19:56;18.90;99.90
10692;DHT22;5396;50.950;6.988;2023-07-29T06:22:22;18.90;99.90
10692;DHT22;5396;50.950;6.988;2023-07-29T06:24:47;18.90;99.90
10692;DHT22;5396;50.950;6.988;2023-07-29T06:27:13;18.90;99.90
10692;DHT22;5396;50.950;6.988;2023-07-29T06:29:39;18.90;99.90
10692;DHT22;5396;50.950;6.988;2023-07-29T06:32:05;19.00;99.90
10692;DHT22;5396;50.950;6.988;2023-07-29T06:34:30;18.90;99.90
10692;DHT22;5396;50.950;6.988;2023-07-29T06:36:56;19.00;99.90
10692;DHT22;5396;50.950;6.988;2023-07-29T06:39:22;19.00;99.90
10692;DHT22;5396;50.950;6.988;2023-07-29T06:41:48;18.90;99.90
10692;DHT22;5396;50.950;6.988;2023-07-29T06:44:13;18.90;99.90
10692;DHT22;5396;50.950;6.988;2023-07-29T06:46:39;18.90;99.90
10692;DHT22;5396;50.950;6.988;2023-07-29T06:49:05;18.90;99.90
10692;DHT22;5396;50.950;6.988;2023-07-29T06:51:31;18.90;99.90
10692;DHT22;5396;50.950;6.988;2023-07-29T06:54:00;18.90;99.90
10692;DHT22;5396;50.950;6.988;2023-07-29T06:56:25;18.90;99.90
10692;DHT22;5396;50.950;6.988;2023-07-29T06:58:51;18.90;99.90
10692;DHT22;5396;50.950;6.988;2023-07-29T07:01:17;18.90;99.90
10692;DHT22;5396;50.950;6.988;2023-07-29T07:03:42;19.00;99.90
10692;DHT22;5396;50.950;6.988;2023-07-29T07:06:08;19.00;99.90
10692;DHT22;5396;50.950;6.988;2023-07-29T07:08:33;19.10;99.90
10692;DHT22;5396;50.950;6.988;2023-07-29T07:10:59;19.20;99.90
10692;DHT22;5396;50.950;6.988;2023-07-29T07:13:25;19.20;99.90
10692;DHT22;5396;50.950;6.988;2023-07-29T07:15:50;19.20;99.90
10692;DHT22;5396;50.950;6.988;2023-07-29T07:18:16;19.20;99.90
10692;DHT22;5396;50.950;6.988;2023-07-29T07:20:41;19.30;99.90
10692;DHT22;5396;50.950;6.988;2023-07-29T07:23:07;19.40;99.90
10692;DHT22;5396;50.950;6.988;2023-07-29T07:25:36;19.40;99.90
10692;DHT22;5396;50.950;6.988;2023-07-29T07:28:02;19.50;99.90
10692;DHT22;5396;50.950;6.988;2023-07-29T07:30:27;19.50;99.90
10692;DHT22;5396;50.950;6.988;2023-07-29T07:32:53;19.50;99.90
10692;DHT22;5396;50.950;6.988;2023-07-29T07:35:19;19.50;99.90
10692;DHT22;5396;50.950;6.988;2023-07-29T07:37:44;19.50;99.90
10692;DHT22;5396;50.950;6.988;2023-07-29T07:40:10;19.50;99.90
10692;DHT22;5396;50.950;6.988;2023-07-29T07:42:36;19.60;99.90
10692;DHT22;5396;50.950;6.988;2023-07-29T07:45:02;19.70;99.90
10692;DHT22;5396;50.950;6.988;2023-07-29T07:47:28;19.80;99.90
10692;DHT22;5396;50.950;6.988;2023-07-29T07:49:53;19.80;99.90
10692;DHT22;5396;50.950;6.988;2023-07-29T07:52:19;19.80;99.90
10692;DHT22;5396;50.950;6.988;2023-07-29T07:54:44;19.90;99.90
10692;DHT22;5396;50.950;6.988;2023-07-29T07:57:10;20.00;99.90
10692;DHT22;5396;50.950;6.988;2023-07-29T07:59:35;20.00;99.90
10692;DHT22;5396;50.950;6.988;2023-07-29T08:02:01;19.90;99.90
10692;DHT22;5396;50.950;6.988;2023-07-29T08:04:27;19.90;99.90
10692;DHT22;5396;50.950;6.988;2023-07-29T08:06:52;19.90;99.90
10692;DHT22;5396;50.950;6.988;2023-07-29T08:09:18;19.90;99.90
10692;DHT22;5396;50.950;6.988;2023-07-29T08:11:43;19.90;99.90
10692;DHT22;5396;50.950;6.988;2023-07-29T08:14:09;19.80;99.90
10692;DHT22;5396;50.950;6.988;2023-07-29T08:16:34;19.70;99.90
10692;DHT22;5396;50.950;6.988;2023-07-29T08:19:00;19.70;99.90
10692;DHT22;5396;50.950;6.988;2023-07-29T08:21:27;19.70;99.90
10692;DHT22;5396;50.950;6.988;2023-07-29T08:23:52;19.70;99.90
10692;DHT22;5396;50.950;6.988;2023-07-29T08:26:18;19.80;99.90
10692;DHT22;5396;50.950;6.988;2023-07-29T08:28:43;19.80;99.90
10692;DHT22;5396;50.950;6.988;2023-07-29T08:31:09;19.80;99.90
10692;DHT22;5396;50.950;6.988;2023-07-29T08:33:35;19.90;99.90
10692;DHT22;5396;50.950;6.988;2023-07-29T08:36:01;20.20;99.90
10692;DHT22;5396;50.950;6.988;2023-07-29T08:38:27;20.40;99.90
10692;DHT22;5396;50.950;6.988;2023-07-29T08:41:13;20.60;99.90
10692;DHT22;5396;50.950;6.988;2023-07-29T08:43:52;20.70;99.90
10692;DHT22;5396;50.950;6.988;2023-07-29T08:46:20;20.90;99.90
10692;DHT22;5396;50.950;6.988;2023-07-29T08:48:46;20.90;99.90
10692;DHT22;5396;50.950;6.988;2023-07-29T08:51:12;20.80;99.90
10692;DHT22;5396;50.950;6.988;2023-07-29T08:53:39;20.70;99.90
10692;DHT22;5396;50.950;6.988;2023-07-29T08:56:06;20.70;99.90
10692;DHT22;5396;50.950;6.988;2023-07-29T08:58:32;20.60;99.90
10692;DHT22;5396;50.950;6.988;2023-07-29T09:00:58;20.60;99.90
10692;DHT22;5396;50.950;6.988;2023-07-29T09:03:23;20.70;99.90
10692;DHT22;5396;50.950;6.988;2023-07-29T09:05:49;20.70;99.90
10692;DHT22;5396;50.950;6.988;2023-07-29T09:08:16;20.80;99.90
10692;DHT22;5396;50.950;6.988;2023-07-29T09:10:41;20.90;99.90
10692;DHT22;5396;50.950;6.988;2023-07-29T09:13:07;20.90;99.90
10692;DHT22;5396;50.950;6.988;2023-07-29T09:15:35;20.90;99.90
10692;DHT22;5396;50.950;6.988;2023-07-29T09:18:19;20.80;99.90
10692;DHT22;5396;50.950;6.988;2023-07-29T09:20:49;20.80;99.90
10692;DHT22;5396;50.950;6.988;2023-07-29T09:23:15;20.70;99.90
10692;DHT22;5396;50.950;6.988;2023-07-29T09:25:41;20.70;99.90
10692;DHT22;5396;50.950;6.988;2023-07-29T09:28:13;20.70;99.90
10692;DHT22;5396;50.950;6.988;2023-07-29T09:30:40;20.70;99.90
10692;DHT22;5396;50.950;6.988;2023-07-29T09:33:06;20.60;99.90
10692;DHT22;5396;50.950;6.988;2023-07-29T09:35:36;20.70;99.90
10692;DHT22;5396;50.950;6.988;2023-07-29T09:38:03;20.60;99.90
10692;DHT22;5396;50.950;6.988;2023-07-29T09:40:39;20.60;99.90
10692;DHT22;5396;50.950;6.988;2023-07-29T09:43:05;20.60;99.90
10692;DHT22;5396;50.950;6.988;2023-07-29T09:45:33;20.60;99.90
10692;DHT22;5396;50.950;6.988;2023-07-29T09:48:00;20.60;99.90
10692;DHT22;5396;50.950;6.988;2023-07-29T09:50:26;20.70;99.90
10692;DHT22;5396;50.950;6.988;2023-07-29T09:52:54;20.80;99.90
10692;DHT22;5396;50.950;6.988;2023-07-29T09:55:22;21.00;99.90
10692;DHT22;5396;50.950;6.988;2023-07-29T09:58:01;21.20;99.90
10692;DHT22;5396;50.950;6.988;2023-07-29T10:00:30;21.30;99.90
10692;DHT22;5396;50.950;6.988;2023-07-29T10:02:57;21.50;99.90
10692;DHT22;5396;50.950;6.988;2023-07-29T10:05:25;21.60;99.90
10692;DHT22;5396;50.950;6.988;2023-07-29T10:07:51;21.70;99.90
10692;DHT22;5396;50.950;6.988;2023-07-29T10:10:17;21.70;99.90
10692;DHT22;5396;50.950;6.988;2023-07-29T10:12:42;21.80;99.90
10692;DHT22;5396;50.950;6.988;2023-07-29T10:15:08;21.70;99.90
10692;DHT22;5396;50.950;6.988;2023-07-29T10:17:36;21.70;99.90
10692;DHT22;5396;50.950;6.988;2023-07-29T10:20:04;21.70;99.90
10692;DHT22;5396;50.950;6.988;2023-07-29T10:22:35;21.80;99.90
10692;DHT22;5396;50.950;6.988;2023-07-29T10:25:04;21.80;99.90
10692;DHT22;5396;50.950;6.988;2023-07-29T10:27:43;21.80;99.90
10692;DHT22;5396;50.950;6.988;2023-07-29T10:30:11;21.90;99.90
10692;DHT22;5396;50.950;6.988;2023-07-29T10:32:38;21.90;99.90
10692;DHT22;5396;50.950;6.988;2023-07-29T10:35:04;21.70;99.90
10692;DHT22;5396;50.950;6.988;2023-07-29T10:37:30;21.60;99.90
10692;DHT22;5396;50.950;6.988;2023-07-29T10:39:56;21.40;99.90
10692;DHT22;5396;50.950;6.988;2023-07-29T10:42:22;21.30;99.90
10692;DHT22;5396;50.950;6.988;2023-07-29T10:44:49;21.20;99.90
10692;DHT22;5396;50.950;6.988;2023-07-29T10:47:26;21.10;99.90
10692;DHT22;5396;50.950;6.988;2023-07-29T10:49:54;20.70;99.90
10692;DHT22;5396;50.950;6.988;2023-07-29T10:55:02;20.30;99.90
10692;DHT22;5396;50.950;6.988;2023-07-29T10:57:37;20.30;99.90
10692;DHT22;5396;50.950;6.988;2023-07-29T11:00:04;20.40;99.90
10692;DHT22;5396;50.950;6.988;2023-07-29T11:02:35;20.50;99.90
10692;DHT22;5396;50.950;6.988;2023-07-29T11:05:06;20.60;99.90
10692;DHT22;5396;50.950;6.988;2023-07-29T11:07:46;20.70;99.90
10692;DHT22;5396;50.950;6.988;2023-07-29T11:10:13;20.80;99.90
10692;DHT22;5396;50.950;6.988;2023-07-29T11:12:50;20.90;99.90
10692;DHT22;5396;50.950;6.988;2023-07-29T11:15:22;20.80;99.90
10692;DHT22;5396;50.950;6.988;2023-07-29T11:17:56;20.80;99.90
10692;DHT22;5396;50.950;6.988;2023-07-29T11:20:27;20.90;99.90
10692;DHT22;5396;50.950;6.988;2023-07-29T11:22:54;21.10;99.90
10692;DHT22;5396;50.950;6.988;2023-07-29T11:25:21;21.20;99.90
10692;DHT22;5396;50.950;6.988;2023-07-29T11:27:48;21.20;99.90
10692;DHT22;5396;50.950;6.988;2023-07-29T11:30:15;21.30;99.90
10692;DHT22;5396;50.950;6.988;2023-07-29T11:32:43;21.30;99.90
10692;DHT22;5396;50.950;6.988;2023-07-29T11:35:14;21.40;99.90
10692;DHT22;5396;50.950;6.988;2023-07-29T11:37:41;21.50;99.90
10692;DHT22;5396;50.950;6.988;2023-07-29T11:40:08;21.70;99.90
10692;DHT22;5396;50.950;6.988;2023-07-29T11:42:36;21.80;99.90
10692;DHT22;5396;50.950;6.988;2023-07-29T11:45:03;21.80;99.90
10692;DHT22;5396;50.950;6.988;2023-07-29T11:47:30;21.90;99.90
10692;DHT22;5396;50.950;6.988;2023-07-29T11:49:59;22.00;99.90
10692;DHT22;5396;50.950;6.988;2023-07-29T11:52:26;22.00;99.90
10692;DHT22;5396;50.950;6.988;2023-07-29T11:54:52;22.20;99.90
10692;DHT22;5396;50.950;6.988;2023-07-29T11:57:18;22.10;99.90
10692;DHT22;5396;50.950;6.988;2023-07-29T11:59:45;22.00;99.90
10692;DHT22;5396;50.950;6.988;2023-07-29T12:02:13;22.00;99.90
10692;DHT22;5396;50.950;6.988;2023-07-29T12:04:41;22.40;99.90
10692;DHT22;5396;50.950;6.988;2023-07-29T12:07:07;22.80;99.90
10692;DHT22;5396;50.950;6.988;2023-07-29T12:09:34;22.90;99.90
10692;DHT22;5396;50.950;6.988;2023-07-29T12:12:00;22.90;99.90
10692;DHT22;5396;50.950;6.988;2023-07-29T12:14:28;23.00;99.90
10692;DHT22;5396;50.950;6.988;2023-07-29T12:16:54;23.10;99.90
10692;DHT22;5396;50.950;6.988;2023-07-29T12:19:19;23.20;99.90
10692;DHT22;5396;50.950;6.988;2023-07-29T12:21:48;23.40;99.90
10692;DHT22;5396;50.950;6.988;2023-07-29T12:24:15;23.60;99.90
10692;DHT22;5396;50.950;6.988;2023-07-29T12:26:41;23.80;99.90
10692;DHT22;5396;50.950;6.988;2023-07-29T12:29:18;24.00;99.90
10692;DHT22;5396;50.950;6.988;2023-07-29T12:31:47;24.20;99.90
10692;DHT22;5396;50.950;6.988;2023-07-29T12:34:20;24.20;99.90
10692;DHT22;5396;50.950;6.988;2023-07-29T12:36:48;24.20;99.90
10692;DHT22;5396;50.950;6.988;2023-07-29T12:41:46;24.40;99.90
10692;DHT22;5396;50.950;6.988;2023-07-29T12:44:12;24.10;99.90
10692;DHT22;5396;50.950;6.988;2023-07-29T12:46:38;24.10;99.90
10692;DHT22;5396;50.950;6.988;2023-07-29T12:49:04;24.40;99.90
10692;DHT22;5396;50.950;6.988;2023-07-29T12:51:30;24.90;99.90
10692;DHT22;5396;50.950;6.988;2023-07-29T12:53:55;24.90;99.90
10692;DHT22;5396;50.950;6.988;2023-07-29T12:56:21;24.50;99.90
10692;DHT22;5396;50.950;6.988;2023-07-29T12:58:46;24.10;99.90
10692;DHT22;5396;50.950;6.988;2023-07-29T13:01:13;23.80;99.90
10692;DHT22;5396;50.950;6.988;2023-07-29T13:03:43;23.80;99.90
10692;DHT22;5396;50.950;6.988;2023-07-29T13:06:08;23.70;99.90
10692;DHT22;5396;50.950;6.988;2023-07-29T13:08:34;23.70;99.90
10692;DHT22;5396;50.950;6.988;2023-07-29T13:11:00;23.80;99.90
10692;DHT22;5396;50.950;6.988;2023-07-29T13:13:25;23.80;99.90
10692;DHT22;5396;50.950;6.988;2023-07-29T13:15:51;24.00;99.90
10692;DHT22;5396;50.950;6.988;2023-07-29T13:18:18;24.00;99.90
10692;DHT22;5396;50.950;6.988;2023-07-29T13:20:43;23.90;99.90
10692;DHT22;5396;50.950;6.988;2023-07-29T13:23:09;23.70;99.90
10692;DHT22;5396;50.950;6.988;2023-07-29T13:25:34;23.30;99.90
10692;DHT22;5396;50.950;6.988;2023-07-29T13:28:00;23.00;99.90
10692;DHT22;5396;50.950;6.988;2023-07-29T13:30:26;22.70;99.90
10692;DHT22;5396;50.950;6.988;2023-07-29T13:32:51;22.50;99.90
10692;DHT22;5396;50.950;6.988;2023-07-29T13:35:17;22.30;99.90
10692;DHT22;5396;50.950;6.988;2023-07-29T13:37:42;22.20;99.90
10692;DHT22;5396;50.950;6.988;2023-07-29T13:40:08;21.90;99.90
10692;DHT22;5396;50.950;6.988;2023-07-29T13:42:33;21.50;99.90
10692;DHT22;5396;50.950;6.988;2023-07-29T13:45:00;21.10;99.90
10692;DHT22;5396;50.950;6.988;2023-07-29T13:47:26;20.80;99.90
10692;DHT22;5396;50.950;6.988;2023-07-29T13:49:51;20.50;99.90
10692;DHT22;5396;50.950;6.988;2023-07-29T13:52:17;20.30;99.90
10692;DHT22;5396;50.950;6.988;2023-07-29T13:54:42;20.00;99.90
10692;DHT22;5396;50.950;6.988;2023-07-29T13:57:08;19.90;99.90
10692;DHT22;5396;50.950;6.988;2023-07-29T13:59:36;19.70;99.90
10692;DHT22;5396;50.950;6.988;2023-07-29T14:02:06;19.60;99.90
10692;DHT22;5396;50.950;6.988;2023-07-29T14:04:33;19.60;99.90
10692;DHT22;5396;50.950;6.988;2023-07-29T14:06:58;19.50;99.90
10692;DHT22;5396;50.950;6.988;2023-07-29T14:09:24;19.60;99.90
10692;DHT22;5396;50.950;6.988;2023-07-29T14:11:50;19.60;99.90
10692;DHT22;5396;50.950;6.988;2023-07-29T14:14:15;19.80;99.90
10692;DHT22;5396;50.950;6.988;2023-07-29T14:16:41;19.90;99.90
10692;DHT22;5396;50.950;6.988;2023-07-29T14:19:07;20.00;99.90
10692;DHT22;5396;50.950;6.988;2023-07-29T14:21:32;20.00;99.90
10692;DHT22;5396;50.950;6.988;2023-07-29T14:23:58;20.10;99.90
10692;DHT22;5396;50.950;6.988;2023-07-29T14:26:23;20.20;99.90
10692;DHT22;5396;50.950;6.988;2023-07-29T14:28:49;20.60;99.90
10692;DHT22;5396;50.950;6.988;2023-07-29T14:31:16;22.00;99.90
10692;DHT22;5396;50.950;6.988;2023-07-29T14:33:43;24.20;99.90
10692;DHT22;5396;50.950;6.988;2023-07-29T14:36:09;26.10;99.90
10692;DHT22;5396;50.950;6.988;2023-07-29T14:38:35;26.80;99.90
10692;DHT22;5396;50.950;6.988;2023-07-29T14:41:01;26.30;99.90
10692;DHT22;5396;50.950;6.988;2023-07-29T14:43:26;26.10;99.90
10692;DHT22;5396;50.950;6.988;2023-07-29T14:45:52;26.70;99.90
10692;DHT22;5396;50.950;6.988;2023-07-29T14:48:17;26.10;99.90
10692;DHT22;5396;50.950;6.988;2023-07-29T14:50:43;24.80;99.90
10692;DHT22;5396;50.950;6.988;2023-07-29T14:53:10;23.70;99.90
10692;DHT22;5396;50.950;6.988;2023-07-29T14:55:37;22.90;99.90
10692;DHT22;5396;50.950;6.988;2023-07-29T14:58:02;22.50;99.90
10692;DHT22;5396;50.950;6.988;2023-07-29T15:00:28;22.10;99.90
10692;DHT22;5396;50.950;6.988;2023-07-29T15:02:54;21.80;99.90
10692;DHT22;5396;50.950;6.988;2023-07-29T15:05:20;21.40;99.90
10692;DHT22;5396;50.950;6.988;2023-07-29T15:07:46;21.20;99.90
10692;DHT22;5396;50.950;6.988;2023-07-29T15:10:14;21.10;99.90
10692;DHT22;5396;50.950;6.988;2023-07-29T15:12:41;21.00;99.90
10692;DHT22;5396;50.950;6.988;2023-07-29T15:15:07;20.90;99.90
10692;DHT22;5396;50.950;6.988;2023-07-29T15:17:33;20.80;99.90
10692;DHT22;5396;50.950;6.988;2023-07-29T15:19:59;20.80;99.90
10692;DHT22;5396;50.950;6.988;2023-07-29T15:22:24;20.90;99.90
10692;DHT22;5396;50.950;6.988;2023-07-29T15:24:50;21.00;99.90
10692;DHT22;5396;50.950;6.988;2023-07-29T15:27:15;21.10;99.90
10692;DHT22;5396;50.950;6.988;2023-07-29T15:29:41;21.30;99.90
10692;DHT22;5396;50.950;6.988;2023-07-29T15:32:07;21.90;99.90
10692;DHT22;5396;50.950;6.988;2023-07-29T15:34:33;22.40;99.90
10692;DHT22;5396;50.950;6.988;2023-07-29T15:36:58;22.60;99.90
10692;DHT22;5396;50.950;6.988;2023-07-29T15:39:24;22.70;99.90
10692;DHT22;5396;50.950;6.988;2023-07-29T15:41:50;22.80;99.90
10692;DHT22;5396;50.950;6.988;2023-07-29T15:44:16;22.80;99.90
10692;DHT22;5396;50.950;6.988;2023-07-29T15:46:42;22.80;99.90
10692;DHT22;5396;50.950;6.988;2023-07-29T15:49:08;22.70;99.90
10692;DHT22;5396;50.950;6.988;2023-07-29T15:51:35;22.50;99.90
10692;DHT22;5396;50.950;6.988;2023-07-29T15:54:00;22.40;99.90
10692;DHT22;5396;50.950;6.988;2023-07-29T15:56:30;22.40;99.90
10692;DHT22;5396;50.950;6.988;2023-07-29T15:58:56;22.30;99.90